Bei Facebook empfehlenBei Twitter postenGoogle plusPinterest

Das Wetter im Erzgebirge am 25.05.2017

Wetter und Klima am 25.05.2017 Holzhau im Erzgebirge (630m ü.NN)
Letzte gemessene Temperatur und Uhrzeit der Messung23:45:00 Uhr4.90 °C
Temperatur (Maximum / Höchstwert) und Uhrzeit der Messung14:00:00 Uhr17.40 °C
Temperatur (Minimum / Tiefstwert) und Uhrzeit der Messung23:45:004.90 °C
Errechneter Absolutwert der Temperaturschwankungen zwischen Tmin und Tmax des Tages12.50 K
Errechnete Tagesmitteltemperatur11.20417 °C
Gesamt - Niederschlag des Tages (in flüssiger Form)0.00 Liter / m²
Luftdruck (Maximum / Höchstwert) und Zeitpunkt der Messung11:45:00 Uhr1019.30 hPa
Luftdruck (Minimum / Tiefstwert) und Zeitpunkt der Messung20:00:00 Uhr1017.80 hPa
Errechneter Absolutwert der Luftdruckschwankungen des Tages1.50 hPa
Höchste gemessene Windgeschwindigkeit und Uhrzeit der Messung14:00:00 Uhr32.40 km/h
Errechnete Windhäufigkeit in Relation zu den Messwerten des Tages14.58333 %
Niedrigste Windkühle (Windchill) und Zeitpunkt der Messung23:45:00 Uhr4.90 °C
Taupunkt (Maximum / Höchstwert) und Uhrzeit der Messung14:00:00 Uhr9.30 °C
Taupunkt (Minimum / Tiefstwert) und Uhrzeit der Messung23:45:002.80 °C
Anzahl der automatisch eingelesenen Messwerte 96

Detaillierte Wetter- und Klima- Messwerte für den 25.05.2017 in Holzhau im Erzgebirge (630m ü.NN)
ZeitTemperaturLuftdruckRel. LuftfeuchteWindWindrichtungWindchillTaupunktNiederschlag l/m²
23:45:004.90 °C1018.80 hPa86.00 %2.80 °C 
23:30:005.10 °C1018.80 hPa86.00 %3.00 °C 
23:15:005.40 °C1018.80 hPa85.00 %3.10 °C 
23:00:005.90 °C1018.80 hPa84.00 %3.40 °C 
22:45:006.30 °C1018.70 hPa84.00 %3.80 °C 
22:30:006.90 °C1018.80 hPa82.00 %4.00 °C 
22:15:007.60 °C1018.60 hPa81.00 %4.60 °C 
22:00:008.30 °C1018.50 hPa80.00 %5.10 °C 
21:45:009.00 °C1018.40 hPa78.00 %5.40 °C 
21:30:009.80 °C1018.20 hPa78.00 %6.20 °C 
21:15:0010.50 °C1018.00 hPa78.00 %6.80 °C 
21:00:0011.30 °C1018.00 hPa77.00 %7.40 °C 
20:45:0011.90 °C1017.90 hPa77.00 %8.00 °C 
20:30:0012.40 °C1018.00 hPa74.00 %7.90 °C 
20:15:0012.90 °C1018.00 hPa71.00 %7.80 °C 
20:00:0013.40 °C1017.80 hPa68.00 %7.60 °C 
19:45:0013.90 °C1018.00 hPa67.00 %7.90 °C 
19:30:0013.80 °C1017.90 hPa67.00 %7.80 °C 
19:15:0014.50 °C1018.10 hPa64.00 %7.80 °C 
19:00:0015.60 °C1018.00 hPa62.00 %8.40 °C 
18:45:0015.80 °C1017.90 hPa60.00 %8.10 °C 
18:30:0015.90 °C1017.90 hPa59.00 %7.90 °C 
18:15:0016.10 °C1018.10 hPa58.00 %18.00 km/hSW16.70 °C7.80 °C 
18:00:0016.80 °C1018.20 hPa57.00 %8.20 °C 
17:45:0016.60 °C1018.10 hPa59.00 %15.48 km/hNW16.60 °C8.60 °C 
17:30:0016.80 °C1018.30 hPa58.00 %5.04 km/hWNW16.80 °C8.50 °C 
17:15:0016.30 °C1018.20 hPa60.00 %8.50 °C 
17:00:0015.90 °C1018.40 hPa61.00 %8.40 °C 
16:45:0016.40 °C1018.40 hPa57.00 %7.90 °C 
16:30:0017.20 °C1018.40 hPa57.00 %8.60 °C 
16:15:0016.90 °C1018.30 hPa59.00 %7.92 km/hW16.90 °C8.80 °C 
16:00:0016.30 °C1018.40 hPa59.00 %15.48 km/hW16.30 °C8.30 °C 
15:45:0016.70 °C1018.50 hPa58.00 %8.40 °C 
15:30:0016.60 °C1018.60 hPa60.00 %8.80 °C 
15:15:0016.10 °C1018.70 hPa62.00 %8.80 °C 
15:00:0015.80 °C1018.70 hPa61.00 %11.52 km/hNNO15.80 °C8.30 °C 
14:45:0016.20 °C1018.60 hPa60.00 %8.40 °C 
14:30:0016.30 °C1018.70 hPa60.00 %8.50 °C 
14:15:0016.60 °C1018.70 hPa58.00 %27.36 km/hNW16.80 °C8.30 °C 
14:00:0017.40 °C1018.70 hPa59.00 %32.40 km/hWNW17.60 °C9.30 °C 
13:45:0016.90 °C1018.80 hPa58.00 %8.60 °C 
13:30:0016.90 °C1018.60 hPa58.00 %20.88 km/hNW17.40 °C8.60 °C 
13:15:0016.60 °C1018.80 hPa56.00 %7.80 °C 
13:00:0015.90 °C1018.60 hPa62.00 %8.60 °C 
12:45:0015.50 °C1018.80 hPa63.00 %8.50 °C 
12:30:0015.80 °C1018.70 hPa60.00 %8.10 °C 
12:15:0015.20 °C1018.70 hPa65.00 %8.70 °C 
12:00:0014.50 °C1019.10 hPa68.00 %3.96 km/hNW14.50 °C8.70 °C 
11:45:0013.60 °C1019.30 hPa70.00 %8.20 °C 
11:30:0013.90 °C1019.00 hPa74.00 %9.30 °C 
11:15:0013.40 °C1019.10 hPa72.00 %8.50 °C 
11:00:0012.60 °C1018.90 hPa73.00 %7.90 °C 
10:45:0013.60 °C1019.10 hPa70.00 %18.00 km/hWSW13.80 °C8.20 °C 
10:30:0013.00 °C1019.30 hPa74.00 %5.04 km/hNW13.00 °C8.50 °C 
10:15:0012.10 °C1019.20 hPa76.00 %8.00 °C 
10:00:0012.40 °C1019.10 hPa75.00 %8.10 °C 
09:45:0012.40 °C1019.10 hPa78.00 %8.70 °C 
09:30:0011.90 °C1019.10 hPa76.00 %7.92 km/hWNW11.90 °C7.80 °C 
09:15:0011.90 °C1019.00 hPa77.00 %3.96 km/hSW11.90 °C8.00 °C 
09:00:0011.60 °C1019.00 hPa78.00 %7.90 °C 
08:45:0011.10 °C1018.90 hPa77.00 %7.20 °C 
08:30:0011.60 °C1018.80 hPa76.00 %7.50 °C 
08:15:0011.60 °C1018.80 hPa76.00 %7.50 °C 
08:00:0011.80 °C1018.60 hPa76.00 %7.70 °C 
07:45:0010.90 °C1018.50 hPa82.00 %8.00 °C 
07:30:009.50 °C1018.70 hPa84.00 %6.90 °C 
07:15:008.90 °C1018.60 hPa85.00 %6.50 °C 
07:00:008.60 °C1018.60 hPa87.00 %6.60 °C 
06:45:007.90 °C1018.60 hPa88.00 %6.00 °C 
06:30:007.00 °C1018.50 hPa89.00 %5.30 °C 
06:15:006.40 °C1018.60 hPa89.00 %4.70 °C 
06:00:005.90 °C1018.50 hPa89.00 %4.20 °C 
05:45:005.50 °C1018.40 hPa89.00 %3.80 °C 
05:30:005.10 °C1018.30 hPa88.00 %3.30 °C 
05:15:004.90 °C1018.30 hPa88.00 %3.10 °C 
05:00:004.90 °C1018.00 hPa88.00 %3.10 °C 
04:45:004.90 °C1018.10 hPa87.00 %2.90 °C 
04:30:005.10 °C1018.20 hPa86.00 %3.00 °C 
04:15:005.60 °C1017.90 hPa86.00 %3.40 °C 
04:00:006.10 °C1017.80 hPa85.00 %3.80 °C 
03:45:006.80 °C1017.80 hPa85.00 %4.50 °C 
03:30:007.00 °C1017.90 hPa85.00 %4.70 °C 
03:15:007.00 °C1018.00 hPa85.00 %4.70 °C 
03:00:006.90 °C1017.90 hPa86.00 %4.70 °C 
02:45:006.80 °C1018.10 hPa86.00 %4.60 °C 
02:30:006.50 °C1018.00 hPa86.00 %4.30 °C 
02:15:006.30 °C1018.00 hPa86.00 %4.10 °C 
02:00:006.10 °C1018.00 hPa85.00 %3.80 °C 
01:45:006.30 °C1018.00 hPa84.00 %3.80 °C 
01:30:006.70 °C1018.00 hPa82.00 %3.90 °C 
01:15:007.20 °C1018.00 hPa82.00 %4.30 °C 
01:00:007.60 °C1018.20 hPa82.00 %4.70 °C 
00:45:008.00 °C1018.10 hPa82.00 %5.10 °C 
00:30:008.30 °C1018.20 hPa82.00 %5.40 °C 
00:15:008.40 °C1018.20 hPa82.00 %5.50 °C 
00:00:008.60 °C1018.30 hPa81.00 %5.50 °C 

Permanenter Link zu dieser Seite: Wetter im Erzgebirge am 25.05.2017
Performance-Info: Die Erstellung der Seite / Statistik(en) / Tabelle(n) erforderte 5 Datenbankserver-Abfrage(n) und dauerte 98 Millisekunden. (Dieser Messwert ist von der Gesamt-Auslastung des Servers abhängig.)
Erzgebirge - Wetter | Erzgebirge - Wetter (Mobilgeräte) | Komplette Klimadatenbank